sensor_id;sensor_type;location;lat;lon;timestamp;temperature;humidity
22645;DHT22;11489;50.834;6.752;2022-07-29T00:02:08;18.30;53.40
22645;DHT22;11489;50.834;6.752;2022-07-29T00:04:35;18.30;53.60
22645;DHT22;11489;50.834;6.752;2022-07-29T00:07:01;18.30;53.70
22645;DHT22;11489;50.834;6.752;2022-07-29T00:09:27;18.30;53.80
22645;DHT22;11489;50.834;6.752;2022-07-29T00:11:53;18.30;53.80
22645;DHT22;11489;50.834;6.752;2022-07-29T00:14:20;18.20;53.80
22645;DHT22;11489;50.834;6.752;2022-07-29T00:16:46;18.20;53.80
22645;DHT22;11489;50.834;6.752;2022-07-29T00:19:11;18.20;54.00
22645;DHT22;11489;50.834;6.752;2022-07-29T00:21:37;18.20;54.00
22645;DHT22;11489;50.834;6.752;2022-07-29T00:24:03;18.20;54.20
22645;DHT22;11489;50.834;6.752;2022-07-29T00:26:29;18.20;54.20
22645;DHT22;11489;50.834;6.752;2022-07-29T00:28:58;18.10;54.30
22645;DHT22;11489;50.834;6.752;2022-07-29T00:31:24;18.10;54.40
22645;DHT22;11489;50.834;6.752;2022-07-29T00:33:50;18.10;54.60
22645;DHT22;11489;50.834;6.752;2022-07-29T00:36:15;18.20;54.90
22645;DHT22;11489;50.834;6.752;2022-07-29T00:38:41;18.10;55.00
22645;DHT22;11489;50.834;6.752;2022-07-29T00:41:11;18.10;55.00
22645;DHT22;11489;50.834;6.752;2022-07-29T00:43:37;18.00;55.10
22645;DHT22;11489;50.834;6.752;2022-07-29T00:46:02;18.00;55.20
22645;DHT22;11489;50.834;6.752;2022-07-29T00:48:28;18.00;55.30
22645;DHT22;11489;50.834;6.752;2022-07-29T00:50:55;18.00;55.50
22645;DHT22;11489;50.834;6.752;2022-07-29T00:53:23;17.90;55.60
22645;DHT22;11489;50.834;6.752;2022-07-29T00:55:50;17.90;55.60
22645;DHT22;11489;50.834;6.752;2022-07-29T00:58:16;17.90;55.80
22645;DHT22;11489;50.834;6.752;2022-07-29T01:00:42;17.90;55.90
22645;DHT22;11489;50.834;6.752;2022-07-29T01:03:08;17.90;56.10
22645;DHT22;11489;50.834;6.752;2022-07-29T01:05:35;17.80;56.20
22645;DHT22;11489;50.834;6.752;2022-07-29T01:08:02;17.80;56.30
22645;DHT22;11489;50.834;6.752;2022-07-29T01:10:28;17.70;56.40
22645;DHT22;11489;50.834;6.752;2022-07-29T01:12:57;17.70;56.50
22645;DHT22;11489;50.834;6.752;2022-07-29T01:15:24;17.70;56.80
22645;DHT22;11489;50.834;6.752;2022-07-29T01:17:57;17.60;56.70
22645;DHT22;11489;50.834;6.752;2022-07-29T01:24:09;17.50;57.70
22645;DHT22;11489;50.834;6.752;2022-07-29T01:26:55;17.50;57.80
22645;DHT22;11489;50.834;6.752;2022-07-29T01:29:27;17.40;57.50
22645;DHT22;11489;50.834;6.752;2022-07-29T01:31:56;17.40;56.80
22645;DHT22;11489;50.834;6.752;2022-07-29T01:34:50;17.30;57.70
22645;DHT22;11489;50.834;6.752;2022-07-29T01:39:48;17.20;57.60
22645;DHT22;11489;50.834;6.752;2022-07-29T01:42:30;17.20;57.60
22645;DHT22;11489;50.834;6.752;2022-07-29T01:50:53;17.10;57.90
22645;DHT22;11489;50.834;6.752;2022-07-29T01:53:34;17.10;59.10
22645;DHT22;11489;50.834;6.752;2022-07-29T01:56:03;17.00;58.90
22645;DHT22;11489;50.834;6.752;2022-07-29T01:58:29;17.00;58.20
22645;DHT22;11489;50.834;6.752;2022-07-29T02:00:58;16.90;58.20
22645;DHT22;11489;50.834;6.752;2022-07-29T02:03:25;16.90;58.50
22645;DHT22;11489;50.834;6.752;2022-07-29T02:05:53;16.80;58.50
22645;DHT22;11489;50.834;6.752;2022-07-29T02:08:22;16.80;58.60
22645;DHT22;11489;50.834;6.752;2022-07-29T02:10:49;16.70;58.60
22645;DHT22;11489;50.834;6.752;2022-07-29T02:13:17;16.70;58.80
22645;DHT22;11489;50.834;6.752;2022-07-29T02:15:44;16.60;58.90
22645;DHT22;11489;50.834;6.752;2022-07-29T02:18:15;16.50;59.00
22645;DHT22;11489;50.834;6.752;2022-07-29T02:20:49;16.50;59.20
22645;DHT22;11489;50.834;6.752;2022-07-29T02:23:18;16.40;59.30
22645;DHT22;11489;50.834;6.752;2022-07-29T02:25:49;16.30;59.50
22645;DHT22;11489;50.834;6.752;2022-07-29T02:28:17;16.30;59.50
22645;DHT22;11489;50.834;6.752;2022-07-29T02:30:44;16.30;59.70
22645;DHT22;11489;50.834;6.752;2022-07-29T02:33:13;16.20;59.80
22645;DHT22;11489;50.834;6.752;2022-07-29T02:35:40;16.20;60.00
22645;DHT22;11489;50.834;6.752;2022-07-29T02:38:09;16.10;59.90
22645;DHT22;11489;50.834;6.752;2022-07-29T02:40:57;16.10;60.00
22645;DHT22;11489;50.834;6.752;2022-07-29T02:43:24;16.10;60.00
22645;DHT22;11489;50.834;6.752;2022-07-29T02:45:52;16.10;60.00
22645;DHT22;11489;50.834;6.752;2022-07-29T02:48:24;16.20;60.20
22645;DHT22;11489;50.834;6.752;2022-07-29T02:51:01;16.20;60.40
22645;DHT22;11489;50.834;6.752;2022-07-29T02:53:31;16.30;60.50
22645;DHT22;11489;50.834;6.752;2022-07-29T02:56:07;16.30;60.30
22645;DHT22;11489;50.834;6.752;2022-07-29T02:58:42;16.40;60.30
22645;DHT22;11489;50.834;6.752;2022-07-29T03:01:23;16.40;60.10
22645;DHT22;11489;50.834;6.752;2022-07-29T03:03:51;16.40;60.30
22645;DHT22;11489;50.834;6.752;2022-07-29T03:06:20;16.50;59.80
22645;DHT22;11489;50.834;6.752;2022-07-29T03:08:46;16.50;59.80
22645;DHT22;11489;50.834;6.752;2022-07-29T03:11:12;16.60;59.60
22645;DHT22;11489;50.834;6.752;2022-07-29T03:13:39;16.70;59.60
22645;DHT22;11489;50.834;6.752;2022-07-29T03:16:05;16.70;59.50
22645;DHT22;11489;50.834;6.752;2022-07-29T03:18:32;16.80;59.40
22645;DHT22;11489;50.834;6.752;2022-07-29T03:20:58;16.80;59.30
22645;DHT22;11489;50.834;6.752;2022-07-29T03:23:24;16.90;59.20
22645;DHT22;11489;50.834;6.752;2022-07-29T03:25:53;16.90;59.20
22645;DHT22;11489;50.834;6.752;2022-07-29T03:28:19;16.90;59.10
22645;DHT22;11489;50.834;6.752;2022-07-29T03:30:46;16.90;59.10
22645;DHT22;11489;50.834;6.752;2022-07-29T03:33:12;16.90;59.10
22645;DHT22;11489;50.834;6.752;2022-07-29T03:35:37;16.90;59.00
22645;DHT22;11489;50.834;6.752;2022-07-29T03:38:03;16.90;59.10
22645;DHT22;11489;50.834;6.752;2022-07-29T03:43:08;16.90;59.10
22645;DHT22;11489;50.834;6.752;2022-07-29T03:45:36;17.00;59.10
22645;DHT22;11489;50.834;6.752;2022-07-29T03:48:08;17.00;59.10
22645;DHT22;11489;50.834;6.752;2022-07-29T03:50:35;17.00;59.40
22645;DHT22;11489;50.834;6.752;2022-07-29T03:53:02;17.00;59.10
22645;DHT22;11489;50.834;6.752;2022-07-29T03:55:29;17.00;59.10
22645;DHT22;11489;50.834;6.752;2022-07-29T03:57:57;17.00;59.10
22645;DHT22;11489;50.834;6.752;2022-07-29T04:00:27;17.00;59.10
22645;DHT22;11489;50.834;6.752;2022-07-29T04:02:53;17.00;59.10
22645;DHT22;11489;50.834;6.752;2022-07-29T04:05:19;17.00;58.90
22645;DHT22;11489;50.834;6.752;2022-07-29T04:07:46;17.00;58.80
22645;DHT22;11489;50.834;6.752;2022-07-29T04:10:12;17.10;58.80
22645;DHT22;11489;50.834;6.752;2022-07-29T04:12:38;17.10;58.80
22645;DHT22;11489;50.834;6.752;2022-07-29T04:15:04;17.10;58.60
22645;DHT22;11489;50.834;6.752;2022-07-29T04:17:30;17.10;58.50
22645;DHT22;11489;50.834;6.752;2022-07-29T04:19:56;17.20;58.50
22645;DHT22;11489;50.834;6.752;2022-07-29T04:22:22;17.20;58.40
22645;DHT22;11489;50.834;6.752;2022-07-29T04:24:47;17.20;58.30
22645;DHT22;11489;50.834;6.752;2022-07-29T04:27:13;17.30;58.30
22645;DHT22;11489;50.834;6.752;2022-07-29T04:29:39;17.30;58.20
22645;DHT22;11489;50.834;6.752;2022-07-29T04:32:05;17.30;58.20
22645;DHT22;11489;50.834;6.752;2022-07-29T04:34:30;17.30;58.10
22645;DHT22;11489;50.834;6.752;2022-07-29T04:36:56;17.40;58.10
22645;DHT22;11489;50.834;6.752;2022-07-29T04:39:22;17.40;58.00
22645;DHT22;11489;50.834;6.752;2022-07-29T04:41:47;17.40;57.90
22645;DHT22;11489;50.834;6.752;2022-07-29T04:44:14;17.40;57.90
22645;DHT22;11489;50.834;6.752;2022-07-29T04:46:40;17.40;57.90
22645;DHT22;11489;50.834;6.752;2022-07-29T04:49:06;17.40;57.80
22645;DHT22;11489;50.834;6.752;2022-07-29T04:51:31;17.40;57.90
22645;DHT22;11489;50.834;6.752;2022-07-29T04:53:57;17.40;57.90
22645;DHT22;11489;50.834;6.752;2022-07-29T04:56:23;17.40;57.90
22645;DHT22;11489;50.834;6.752;2022-07-29T04:58:48;17.40;57.90
22645;DHT22;11489;50.834;6.752;2022-07-29T05:01:14;17.50;58.70
22645;DHT22;11489;50.834;6.752;2022-07-29T05:03:40;17.40;58.00
22645;DHT22;11489;50.834;6.752;2022-07-29T05:06:06;17.40;58.70
22645;DHT22;11489;50.834;6.752;2022-07-29T05:08:32;17.50;58.10
22645;DHT22;11489;50.834;6.752;2022-07-29T05:10:57;17.50;58.10
22645;DHT22;11489;50.834;6.752;2022-07-29T05:13:23;17.50;58.10
22645;DHT22;11489;50.834;6.752;2022-07-29T05:15:49;17.50;58.10
22645;DHT22;11489;50.834;6.752;2022-07-29T05:18:15;17.50;58.20
22645;DHT22;11489;50.834;6.752;2022-07-29T05:20:41;17.50;58.30
22645;DHT22;11489;50.834;6.752;2022-07-29T05:23:07;17.50;58.40
22645;DHT22;11489;50.834;6.752;2022-07-29T05:25:32;17.50;58.40
22645;DHT22;11489;50.834;6.752;2022-07-29T05:27:58;17.50;58.50
22645;DHT22;11489;50.834;6.752;2022-07-29T05:30:24;17.60;58.50
22645;DHT22;11489;50.834;6.752;2022-07-29T05:32:50;17.60;58.60
22645;DHT22;11489;50.834;6.752;2022-07-29T05:35:16;17.60;58.60
22645;DHT22;11489;50.834;6.752;2022-07-29T05:37:42;17.60;58.70
22645;DHT22;11489;50.834;6.752;2022-07-29T05:40:08;17.70;58.90
22645;DHT22;11489;50.834;6.752;2022-07-29T05:42:34;17.60;58.90
22645;DHT22;11489;50.834;6.752;2022-07-29T05:45:00;17.60;59.00
22645;DHT22;11489;50.834;6.752;2022-07-29T05:47:26;17.60;59.10
22645;DHT22;11489;50.834;6.752;2022-07-29T05:49:52;17.60;59.20
22645;DHT22;11489;50.834;6.752;2022-07-29T05:52:17;17.60;59.20
22645;DHT22;11489;50.834;6.752;2022-07-29T05:54:43;17.50;59.20
22645;DHT22;11489;50.834;6.752;2022-07-29T05:57:15;17.50;59.40
22645;DHT22;11489;50.834;6.752;2022-07-29T05:59:42;17.60;59.40
22645;DHT22;11489;50.834;6.752;2022-07-29T06:02:07;17.50;59.20
22645;DHT22;11489;50.834;6.752;2022-07-29T06:04:33;17.50;59.20
22645;DHT22;11489;50.834;6.752;2022-07-29T06:06:58;17.50;59.40
22645;DHT22;11489;50.834;6.752;2022-07-29T06:09:24;17.50;59.50
22645;DHT22;11489;50.834;6.752;2022-07-29T06:11:51;17.50;59.60
22645;DHT22;11489;50.834;6.752;2022-07-29T06:14:18;17.50;59.80
22645;DHT22;11489;50.834;6.752;2022-07-29T06:16:44;17.50;60.00
22645;DHT22;11489;50.834;6.752;2022-07-29T06:19:10;17.50;60.10
22645;DHT22;11489;50.834;6.752;2022-07-29T06:21:36;17.50;60.10
22645;DHT22;11489;50.834;6.752;2022-07-29T06:24:02;17.50;60.20
22645;DHT22;11489;50.834;6.752;2022-07-29T06:26:27;17.40;60.30
22645;DHT22;11489;50.834;6.752;2022-07-29T06:28:53;17.40;60.40
22645;DHT22;11489;50.834;6.752;2022-07-29T06:31:19;17.30;60.60
22645;DHT22;11489;50.834;6.752;2022-07-29T06:33:44;17.30;61.10
22645;DHT22;11489;50.834;6.752;2022-07-29T06:36:10;17.30;61.10
22645;DHT22;11489;50.834;6.752;2022-07-29T06:38:36;17.20;60.80
22645;DHT22;11489;50.834;6.752;2022-07-29T06:41:03;17.10;60.70
22645;DHT22;11489;50.834;6.752;2022-07-29T06:43:40;17.00;60.90
22645;DHT22;11489;50.834;6.752;2022-07-29T06:46:09;16.80;62.20
22645;DHT22;11489;50.834;6.752;2022-07-29T06:48:35;16.70;61.90
22645;DHT22;11489;50.834;6.752;2022-07-29T06:51:05;16.70;62.10
22645;DHT22;11489;50.834;6.752;2022-07-29T06:53:32;16.60;62.70
22645;DHT22;11489;50.834;6.752;2022-07-29T06:55:59;16.60;63.10
22645;DHT22;11489;50.834;6.752;2022-07-29T06:58:26;16.50;63.10
22645;DHT22;11489;50.834;6.752;2022-07-29T07:00:52;16.50;63.60
22645;DHT22;11489;50.834;6.752;2022-07-29T07:03:18;16.50;64.50
22645;DHT22;11489;50.834;6.752;2022-07-29T07:05:45;16.50;65.40
22645;DHT22;11489;50.834;6.752;2022-07-29T07:08:11;16.50;65.80
22645;DHT22;11489;50.834;6.752;2022-07-29T07:10:38;16.60;66.20
22645;DHT22;11489;50.834;6.752;2022-07-29T07:13:04;16.60;66.20
22645;DHT22;11489;50.834;6.752;2022-07-29T07:15:30;16.70;66.40
22645;DHT22;11489;50.834;6.752;2022-07-29T07:17:57;16.80;67.10
22645;DHT22;11489;50.834;6.752;2022-07-29T07:20:25;16.90;66.30
22645;DHT22;11489;50.834;6.752;2022-07-29T07:22:51;16.90;66.20
22645;DHT22;11489;50.834;6.752;2022-07-29T07:25:16;17.00;66.20
22645;DHT22;11489;50.834;6.752;2022-07-29T07:27:43;17.00;66.20
22645;DHT22;11489;50.834;6.752;2022-07-29T07:30:09;17.00;66.30
22645;DHT22;11489;50.834;6.752;2022-07-29T07:32:35;17.10;66.30
22645;DHT22;11489;50.834;6.752;2022-07-29T07:35:03;17.10;66.10
22645;DHT22;11489;50.834;6.752;2022-07-29T07:37:29;17.10;66.20
22645;DHT22;11489;50.834;6.752;2022-07-29T07:39:54;17.10;66.30
22645;DHT22;11489;50.834;6.752;2022-07-29T07:42:20;17.10;66.30
22645;DHT22;11489;50.834;6.752;2022-07-29T07:44:46;17.10;66.40
22645;DHT22;11489;50.834;6.752;2022-07-29T07:47:16;17.00;66.40
22645;DHT22;11489;50.834;6.752;2022-07-29T07:49:46;17.00;66.40
22645;DHT22;11489;50.834;6.752;2022-07-29T07:52:16;17.00;66.20
22645;DHT22;11489;50.834;6.752;2022-07-29T07:54:42;16.90;66.00
22645;DHT22;11489;50.834;6.752;2022-07-29T07:57:09;16.90;66.00
22645;DHT22;11489;50.834;6.752;2022-07-29T07:59:35;16.80;65.90
22645;DHT22;11489;50.834;6.752;2022-07-29T08:02:00;16.70;66.20
22645;DHT22;11489;50.834;6.752;2022-07-29T08:04:26;16.60;66.30
22645;DHT22;11489;50.834;6.752;2022-07-29T08:06:52;16.60;66.80
22645;DHT22;11489;50.834;6.752;2022-07-29T08:09:23;16.50;67.80
22645;DHT22;11489;50.834;6.752;2022-07-29T08:11:48;16.50;69.00
22645;DHT22;11489;50.834;6.752;2022-07-29T08:14:14;16.50;69.20
22645;DHT22;11489;50.834;6.752;2022-07-29T08:16:40;16.50;69.70
22645;DHT22;11489;50.834;6.752;2022-07-29T08:19:07;16.60;70.20
22645;DHT22;11489;50.834;6.752;2022-07-29T08:21:33;16.60;70.40
22645;DHT22;11489;50.834;6.752;2022-07-29T08:23:58;16.70;70.60
22645;DHT22;11489;50.834;6.752;2022-07-29T08:26:43;16.80;70.70
22645;DHT22;11489;50.834;6.752;2022-07-29T08:29:09;17.00;70.70
22645;DHT22;11489;50.834;6.752;2022-07-29T08:31:36;17.10;70.50
22645;DHT22;11489;50.834;6.752;2022-07-29T08:34:02;17.20;70.20
22645;DHT22;11489;50.834;6.752;2022-07-29T08:36:29;17.30;69.90
22645;DHT22;11489;50.834;6.752;2022-07-29T08:38:55;17.30;69.80
22645;DHT22;11489;50.834;6.752;2022-07-29T08:41:21;17.40;69.70
22645;DHT22;11489;50.834;6.752;2022-07-29T08:43:48;17.50;69.70
22645;DHT22;11489;50.834;6.752;2022-07-29T08:46:14;17.60;69.80
22645;DHT22;11489;50.834;6.752;2022-07-29T08:48:41;17.70;69.90
22645;DHT22;11489;50.834;6.752;2022-07-29T08:51:07;17.80;70.20
22645;DHT22;11489;50.834;6.752;2022-07-29T08:53:33;17.90;70.40
22645;DHT22;11489;50.834;6.752;2022-07-29T08:56:00;18.10;70.50
22645;DHT22;11489;50.834;6.752;2022-07-29T08:58:32;18.30;70.80
22645;DHT22;11489;50.834;6.752;2022-07-29T09:01:01;18.60;70.60
22645;DHT22;11489;50.834;6.752;2022-07-29T09:03:31;18.90;70.50
22645;DHT22;11489;50.834;6.752;2022-07-29T09:05:58;19.20;70.60
22645;DHT22;11489;50.834;6.752;2022-07-29T09:08:25;19.50;70.30
22645;DHT22;11489;50.834;6.752;2022-07-29T09:10:51;19.90;69.70
22645;DHT22;11489;50.834;6.752;2022-07-29T09:13:17;20.30;68.90
22645;DHT22;11489;50.834;6.752;2022-07-29T09:15:44;20.60;68.10
22645;DHT22;11489;50.834;6.752;2022-07-29T09:18:10;20.90;67.20
22645;DHT22;11489;50.834;6.752;2022-07-29T09:20:36;21.10;66.50
22645;DHT22;11489;50.834;6.752;2022-07-29T09:23:20;21.30;65.90
22645;DHT22;11489;50.834;6.752;2022-07-29T09:25:45;21.60;65.10
22645;DHT22;11489;50.834;6.752;2022-07-29T09:28:16;21.70;64.30
22645;DHT22;11489;50.834;6.752;2022-07-29T09:30:53;21.90;63.80
22645;DHT22;11489;50.834;6.752;2022-07-29T09:33:21;22.00;63.10
22645;DHT22;11489;50.834;6.752;2022-07-29T09:36:08;22.00;63.10
22645;DHT22;11489;50.834;6.752;2022-07-29T09:38:35;22.10;62.60
22645;DHT22;11489;50.834;6.752;2022-07-29T09:41:03;22.30;63.40
22645;DHT22;11489;50.834;6.752;2022-07-29T09:43:29;22.40;62.90
22645;DHT22;11489;50.834;6.752;2022-07-29T09:45:55;22.50;62.80
22645;DHT22;11489;50.834;6.752;2022-07-29T09:48:23;22.70;62.70
22645;DHT22;11489;50.834;6.752;2022-07-29T09:50:49;22.80;62.20
22645;DHT22;11489;50.834;6.752;2022-07-29T09:53:35;22.90;61.50
22645;DHT22;11489;50.834;6.752;2022-07-29T09:56:03;23.10;60.40
22645;DHT22;11489;50.834;6.752;2022-07-29T09:58:28;23.20;61.80
22645;DHT22;11489;50.834;6.752;2022-07-29T10:00:55;23.40;61.80
22645;DHT22;11489;50.834;6.752;2022-07-29T10:03:22;23.60;60.90
22645;DHT22;11489;50.834;6.752;2022-07-29T10:06:08;23.70;61.30
22645;DHT22;11489;50.834;6.752;2022-07-29T10:08:34;23.90;58.70
22645;DHT22;11489;50.834;6.752;2022-07-29T10:11:14;24.00;59.40
22645;DHT22;11489;50.834;6.752;2022-07-29T10:13:42;24.20;58.30
22645;DHT22;11489;50.834;6.752;2022-07-29T10:16:08;24.20;57.90
22645;DHT22;11489;50.834;6.752;2022-07-29T10:18:34;24.30;57.50
22645;DHT22;11489;50.834;6.752;2022-07-29T10:21:01;24.30;57.70
22645;DHT22;11489;50.834;6.752;2022-07-29T10:23:30;24.40;56.80
22645;DHT22;11489;50.834;6.752;2022-07-29T10:25:56;24.50;57.30
22645;DHT22;11489;50.834;6.752;2022-07-29T10:28:22;24.60;56.20
22645;DHT22;11489;50.834;6.752;2022-07-29T10:30:50;24.70;56.80
22645;DHT22;11489;50.834;6.752;2022-07-29T10:34:11;24.80;56.80
22645;DHT22;11489;50.834;6.752;2022-07-29T10:40:09;25.10;55.70
22645;DHT22;11489;50.834;6.752;2022-07-29T10:42:55;25.10;55.30
22645;DHT22;11489;50.834;6.752;2022-07-29T10:45:25;25.20;55.10
22645;DHT22;11489;50.834;6.752;2022-07-29T10:48:03;25.20;54.40
22645;DHT22;11489;50.834;6.752;2022-07-29T10:51:00;25.20;54.00
22645;DHT22;11489;50.834;6.752;2022-07-29T10:53:51;25.30;54.40
22645;DHT22;11489;50.834;6.752;2022-07-29T10:56:30;25.40;52.90
22645;DHT22;11489;50.834;6.752;2022-07-29T11:01:49;25.40;53.80
22645;DHT22;11489;50.834;6.752;2022-07-29T11:04:15;25.40;54.00
22645;DHT22;11489;50.834;6.752;2022-07-29T11:09:26;25.60;53.30
22645;DHT22;11489;50.834;6.752;2022-07-29T11:11:52;25.60;53.60
22645;DHT22;11489;50.834;6.752;2022-07-29T11:17:22;26.00;52.70
22645;DHT22;11489;50.834;6.752;2022-07-29T11:19:47;26.20;53.30
22645;DHT22;11489;50.834;6.752;2022-07-29T11:22:32;26.40;52.00
22645;DHT22;11489;50.834;6.752;2022-07-29T11:25:14;26.50;51.00
22645;DHT22;11489;50.834;6.752;2022-07-29T11:27:40;26.60;50.40
22645;DHT22;11489;50.834;6.752;2022-07-29T11:30:06;26.60;50.10
22645;DHT22;11489;50.834;6.752;2022-07-29T11:32:37;26.60;50.40
22645;DHT22;11489;50.834;6.752;2022-07-29T11:35:16;26.70;50.60
22645;DHT22;11489;50.834;6.752;2022-07-29T11:37:43;26.70;49.90
22645;DHT22;11489;50.834;6.752;2022-07-29T11:40:10;26.80;49.00
22645;DHT22;11489;50.834;6.752;2022-07-29T11:42:38;26.90;48.90
22645;DHT22;11489;50.834;6.752;2022-07-29T11:45:14;27.00;49.20
22645;DHT22;11489;50.834;6.752;2022-07-29T11:47:49;27.10;48.80
22645;DHT22;11489;50.834;6.752;2022-07-29T11:50:18;27.20;48.20
22645;DHT22;11489;50.834;6.752;2022-07-29T11:52:51;27.30;47.20
22645;DHT22;11489;50.834;6.752;2022-07-29T11:55:19;27.30;47.50
22645;DHT22;11489;50.834;6.752;2022-07-29T11:57:54;27.30;47.00
22645;DHT22;11489;50.834;6.752;2022-07-29T12:00:32;27.30;46.40
22645;DHT22;11489;50.834;6.752;2022-07-29T12:02:59;27.40;47.00
22645;DHT22;11489;50.834;6.752;2022-07-29T12:05:39;27.50;47.30
22645;DHT22;11489;50.834;6.752;2022-07-29T12:08:15;27.50;46.70
22645;DHT22;11489;50.834;6.752;2022-07-29T12:10:44;27.40;46.70
22645;DHT22;11489;50.834;6.752;2022-07-29T12:13:11;27.60;47.50
22645;DHT22;11489;50.834;6.752;2022-07-29T12:15:38;27.70;47.10
22645;DHT22;11489;50.834;6.752;2022-07-29T12:18:29;27.80;46.20
22645;DHT22;11489;50.834;6.752;2022-07-29T12:20:59;27.90;46.10
22645;DHT22;11489;50.834;6.752;2022-07-29T12:23:25;28.00;46.60
22645;DHT22;11489;50.834;6.752;2022-07-29T12:25:51;28.10;46.00
22645;DHT22;11489;50.834;6.752;2022-07-29T12:28:17;28.20;46.20
22645;DHT22;11489;50.834;6.752;2022-07-29T12:30:48;28.30;45.70
22645;DHT22;11489;50.834;6.752;2022-07-29T12:33:20;28.40;44.60
22645;DHT22;11489;50.834;6.752;2022-07-29T12:35:57;28.40;44.70
22645;DHT22;11489;50.834;6.752;2022-07-29T12:38:24;28.40;43.30
22645;DHT22;11489;50.834;6.752;2022-07-29T12:40:51;28.40;43.00
22645;DHT22;11489;50.834;6.752;2022-07-29T12:43:19;28.30;43.50
22645;DHT22;11489;50.834;6.752;2022-07-29T12:45:53;28.30;42.20
22645;DHT22;11489;50.834;6.752;2022-07-29T12:48:52;28.20;42.30
22645;DHT22;11489;50.834;6.752;2022-07-29T12:51:35;28.10;43.10
22645;DHT22;11489;50.834;6.752;2022-07-29T12:56:30;28.00;42.50
22645;DHT22;11489;50.834;6.752;2022-07-29T12:58:56;27.90;42.30
22645;DHT22;11489;50.834;6.752;2022-07-29T13:01:22;27.80;41.60
22645;DHT22;11489;50.834;6.752;2022-07-29T13:03:58;27.80;42.10
22645;DHT22;11489;50.834;6.752;2022-07-29T13:09:18;27.80;42.60
22645;DHT22;11489;50.834;6.752;2022-07-29T13:11:45;27.80;42.80
22645;DHT22;11489;50.834;6.752;2022-07-29T13:14:13;27.80;42.40
22645;DHT22;11489;50.834;6.752;2022-07-29T13:19:45;27.90;41.50
22645;DHT22;11489;50.834;6.752;2022-07-29T13:22:13;27.90;41.70
22645;DHT22;11489;50.834;6.752;2022-07-29T13:25:05;27.90;41.60
22645;DHT22;11489;50.834;6.752;2022-07-29T13:27:36;27.80;41.40
22645;DHT22;11489;50.834;6.752;2022-07-29T13:30:04;27.80;41.60
22645;DHT22;11489;50.834;6.752;2022-07-29T13:32:31;27.70;41.50
22645;DHT22;11489;50.834;6.752;2022-07-29T13:35:01;27.70;42.10
22645;DHT22;11489;50.834;6.752;2022-07-29T13:37:28;27.80;42.50
22645;DHT22;11489;50.834;6.752;2022-07-29T13:39:55;27.90;42.10
22645;DHT22;11489;50.834;6.752;2022-07-29T13:42:22;27.90;42.30
22645;DHT22;11489;50.834;6.752;2022-07-29T13:44:48;28.00;42.20
22645;DHT22;11489;50.834;6.752;2022-07-29T13:47:16;28.10;42.40
22645;DHT22;11489;50.834;6.752;2022-07-29T13:49:42;28.30;41.90
22645;DHT22;11489;50.834;6.752;2022-07-29T13:52:08;28.30;41.80
22645;DHT22;11489;50.834;6.752;2022-07-29T13:54:34;28.30;41.60
22645;DHT22;11489;50.834;6.752;2022-07-29T13:57:06;28.30;42.20
22645;DHT22;11489;50.834;6.752;2022-07-29T13:59:32;28.40;41.60
22645;DHT22;11489;50.834;6.752;2022-07-29T14:01:58;28.40;41.80
22645;DHT22;11489;50.834;6.752;2022-07-29T14:04:23;28.30;42.10
22645;DHT22;11489;50.834;6.752;2022-07-29T14:06:50;28.30;42.50
22645;DHT22;11489;50.834;6.752;2022-07-29T14:09:16;28.40;42.70
22645;DHT22;11489;50.834;6.752;2022-07-29T14:11:41;28.40;42.10
22645;DHT22;11489;50.834;6.752;2022-07-29T14:14:07;28.40;41.80
22645;DHT22;11489;50.834;6.752;2022-07-29T14:16:33;28.30;41.80
22645;DHT22;11489;50.834;6.752;2022-07-29T14:18:59;28.30;42.10
22645;DHT22;11489;50.834;6.752;2022-07-29T14:21:24;28.30;42.20
22645;DHT22;11489;50.834;6.752;2022-07-29T14:23:50;28.20;42.30
22645;DHT22;11489;50.834;6.752;2022-07-29T14:26:17;28.20;41.80
22645;DHT22;11489;50.834;6.752;2022-07-29T14:28:43;28.10;41.80
22645;DHT22;11489;50.834;6.752;2022-07-29T14:31:10;28.10;41.80
22645;DHT22;11489;50.834;6.752;2022-07-29T14:33:35;28.00;42.10
22645;DHT22;11489;50.834;6.752;2022-07-29T14:36:01;27.90;42.20
22645;DHT22;11489;50.834;6.752;2022-07-29T14:38:27;27.90;42.10
22645;DHT22;11489;50.834;6.752;2022-07-29T14:40:52;27.90;42.30
22645;DHT22;11489;50.834;6.752;2022-07-29T14:43:18;27.90;41.80
22645;DHT22;11489;50.834;6.752;2022-07-29T14:45:44;28.00;42.10
22645;DHT22;11489;50.834;6.752;2022-07-29T14:48:09;28.10;42.00
22645;DHT22;11489;50.834;6.752;2022-07-29T14:50:37;28.20;41.90
22645;DHT22;11489;50.834;6.752;2022-07-29T14:53:03;28.40;41.20
22645;DHT22;11489;50.834;6.752;2022-07-29T14:55:29;28.50;40.70
22645;DHT22;11489;50.834;6.752;2022-07-29T14:57:54;28.50;40.00
22645;DHT22;11489;50.834;6.752;2022-07-29T15:00:21;28.50;40.20
22645;DHT22;11489;50.834;6.752;2022-07-29T15:02:47;28.60;39.80
22645;DHT22;11489;50.834;6.752;2022-07-29T15:05:13;28.60;40.30
22645;DHT22;11489;50.834;6.752;2022-07-29T15:07:39;28.70;40.40
22645;DHT22;11489;50.834;6.752;2022-07-29T15:10:05;28.80;40.60
22645;DHT22;11489;50.834;6.752;2022-07-29T15:12:31;28.90;40.90
22645;DHT22;11489;50.834;6.752;2022-07-29T15:14:57;29.00;40.60
22645;DHT22;11489;50.834;6.752;2022-07-29T15:17:23;29.10;40.50
22645;DHT22;11489;50.834;6.752;2022-07-29T15:19:48;29.20;39.50
22645;DHT22;11489;50.834;6.752;2022-07-29T15:22:14;29.10;39.30
22645;DHT22;11489;50.834;6.752;2022-07-29T15:24:40;29.00;39.10
22645;DHT22;11489;50.834;6.752;2022-07-29T15:27:05;28.90;39.10
22645;DHT22;11489;50.834;6.752;2022-07-29T15:29:31;28.70;39.20
22645;DHT22;11489;50.834;6.752;2022-07-29T15:31:57;28.60;39.10
22645;DHT22;11489;50.834;6.752;2022-07-29T15:34:22;28.40;38.90
22645;DHT22;11489;50.834;6.752;2022-07-29T15:36:50;28.30;39.30
22645;DHT22;11489;50.834;6.752;2022-07-29T15:39:16;28.10;39.20
22645;DHT22;11489;50.834;6.752;2022-07-29T15:41:50;28.10;39.40
22645;DHT22;11489;50.834;6.752;2022-07-29T15:44:16;28.00;39.30
22645;DHT22;11489;50.834;6.752;2022-07-29T15:46:42;28.00;39.60
22645;DHT22;11489;50.834;6.752;2022-07-29T15:49:26;28.00;40.00
22645;DHT22;11489;50.834;6.752;2022-07-29T15:52:00;28.10;39.80
22645;DHT22;11489;50.834;6.752;2022-07-29T15:54:27;28.10;39.30
22645;DHT22;11489;50.834;6.752;2022-07-29T15:56:53;28.10;39.50
22645;DHT22;11489;50.834;6.752;2022-07-29T15:59:19;28.00;39.50
22645;DHT22;11489;50.834;6.752;2022-07-29T16:01:45;28.10;39.20
22645;DHT22;11489;50.834;6.752;2022-07-29T16:04:11;28.00;38.70
22645;DHT22;11489;50.834;6.752;2022-07-29T16:06:36;28.10;38.50
22645;DHT22;11489;50.834;6.752;2022-07-29T16:09:02;28.00;38.30
22645;DHT22;11489;50.834;6.752;2022-07-29T16:11:28;28.00;38.70
22645;DHT22;11489;50.834;6.752;2022-07-29T16:13:54;27.90;38.50